Time;durP1;ratioP1;P1;durP2;ratioP2;P2;SDS_P1;SDS_P2;PMS_P1;PMS_P2;Temp;Humidity;BMP_temperature;BMP_pressure;BME280_temperature;BME280_humidity;BME280_pressure;Samples;Min_cycle;Max_cycle;Signal;HPM_P1;HPM_P2
2024/02/13 00:00:41;;;;;;;6.50;3.83;;;5.90;99.90;;;;;;5060992;28;20698;-85
2024/02/13 00:03:09;;;;;;;5.27;3.47;;;5.80;99.90;;;;;;5056813;28;20487;-85
2024/02/13 00:05:39;;;;;;;6.40;3.53;;;5.80;99.90;;;;;;5059070;28;20576;-85
2024/02/13 00:08:06;;;;;;;6.67;4.47;;;5.70;99.90;;;;;;5064128;28;20538;-84
2024/02/13 00:10:36;;;;;;;7.03;4.07;;;5.60;99.90;;;;;;5060176;28;20468;-85
2024/02/13 00:13:03;;;;;;;9.83;4.57;;;5.60;99.90;;;;;;5058156;28;20493;-83
2024/02/13 00:15:30;;;;;;;8.33;4.60;;;5.50;99.90;;;;;;5063040;28;20444;-83
2024/02/13 00:17:56;;;;;;;6.83;4.07;;;5.40;99.90;;;;;;5065655;28;20451;-84
2024/02/13 00:20:25;;;;;;;8.83;4.50;;;5.40;99.90;;;;;;5065147;28;20514;-84
2024/02/13 00:22:52;;;;;;;9.63;4.63;;;5.30;99.90;;;;;;5067088;28;20460;-84
2024/02/13 00:25:19;;;;;;;16.90;5.80;;;5.20;99.90;;;;;;5068630;28;20448;-82
2024/02/13 00:27:46;;;;;;;9.40;5.87;;;5.20;99.90;;;;;;5067416;28;20475;-85
2024/02/13 00:30:14;;;;;;;12.10;5.40;;;5.10;99.90;;;;;;5069122;28;20569;-85
2024/02/13 00:32:42;;;;;;;11.30;6.03;;;5.00;99.90;;;;;;5067575;28;20459;-86
2024/02/13 00:35:09;;;;;;;10.00;5.80;;;5.00;99.90;;;;;;5069966;28;20449;-84
2024/02/13 00:37:38;;;;;;;9.83;6.07;;;5.00;99.90;;;;;;5057828;28;20902;-84
2024/02/13 00:40:09;;;;;;;14.30;7.93;;;5.00;99.90;;;;;;5063040;28;20530;-86
2024/02/13 00:42:37;;;;;;;11.17;7.30;;;5.00;99.90;;;;;;5068083;28;20439;-85
2024/02/13 00:45:06;;;;;;;10.17;6.73;;;4.90;99.90;;;;;;5063338;28;20518;-83
2024/02/13 00:47:33;;;;;;;11.50;5.77;;;4.90;99.90;;;;;;5065260;28;20459;-83
2024/02/13 00:50:01;;;;;;;12.23;6.47;;;4.90;99.90;;;;;;5067751;28;20465;-85
2024/02/13 00:52:28;;;;;;;14.53;6.63;;;4.80;99.90;;;;;;5057307;28;20450;-83
2024/02/13 00:54:56;;;;;;;10.40;6.87;;;4.70;99.90;;;;;;5058011;28;20512;-84
2024/02/13 00:57:24;;;;;;;9.53;6.70;;;4.70;99.90;;;;;;5059900;28;20777;-84
2024/02/13 00:59:51;;;;;;;10.70;5.93;;;4.70;99.90;;;;;;5060644;28;20518;-84
2024/02/13 01:02:18;;;;;;;13.50;7.67;;;4.70;99.90;;;;;;5060524;28;20462;-86
2024/02/13 01:04:46;;;;;;;9.83;6.93;;;4.70;99.90;;;;;;5055477;28;20484;-85
2024/02/13 01:07:12;;;;;;;9.93;5.83;;;4.60;99.90;;;;;;5058354;28;20458;-84
2024/02/13 01:09:39;;;;;;;11.90;7.37;;;4.60;99.90;;;;;;5056809;28;20542;-83
2024/02/13 01:12:08;;;;;;;16.13;8.60;;;4.60;99.90;;;;;;5053984;28;20488;-84
2024/02/13 01:14:35;;;;;;;14.27;7.33;;;4.60;99.90;;;;;;5056623;28;20432;-84
2024/02/13 01:17:02;;;;;;;13.30;8.10;;;4.60;99.90;;;;;;5056641;28;20454;-84
2024/02/13 01:19:30;;;;;;;16.47;8.63;;;4.60;99.90;;;;;;5058661;28;20885;-84
2024/02/13 01:21:57;;;;;;;15.53;7.70;;;4.60;99.90;;;;;;5057586;28;20492;-83
2024/02/13 01:24:26;;;;;;;14.00;7.90;;;4.60;99.90;;;;;;5053842;28;20451;-85
2024/02/13 01:26:53;;;;;;;15.73;8.63;;;4.60;99.90;;;;;;5053959;28;20486;-84
2024/02/13 01:29:21;;;;;;;19.13;10.87;;;4.50;99.90;;;;;;5065617;28;20472;-84
2024/02/13 01:31:48;;;;;;;16.03;7.87;;;4.50;99.90;;;;;;5049018;28;20523;-83
2024/02/13 01:34:16;;;;;;;12.17;8.13;;;4.50;99.90;;;;;;5049927;28;20481;-82
2024/02/13 01:36:43;;;;;;;15.70;8.63;;;4.50;99.90;;;;;;5065726;28;20493;-83
2024/02/13 01:39:11;;;;;;;12.73;8.53;;;4.50;99.90;;;;;;5066400;28;20538;-84
2024/02/13 01:41:37;;;;;;;17.30;8.40;;;4.50;99.90;;;;;;5064606;28;20499;-84
2024/02/13 01:44:04;;;;;;;12.00;9.20;;;4.40;99.90;;;;;;5057137;28;20444;-83
2024/02/13 01:46:34;;;;;;;14.93;9.53;;;4.40;99.90;;;;;;5063811;28;20546;-83
2024/02/13 01:49:03;;;;;;;13.53;9.10;;;4.50;99.90;;;;;;5064300;28;20942;-82
2024/02/13 01:51:34;;;;;;;15.87;9.73;;;4.40;99.90;;;;;;5065320;28;20884;-83
2024/02/13 01:54:04;;;;;;;16.70;10.43;;;4.40;99.90;;;;;;5064570;28;20533;-84
2024/02/13 01:56:34;;;;;;;19.07;11.73;;;4.40;99.90;;;;;;5064299;28;20497;-85
2024/02/13 01:59:03;;;;;;;13.57;9.20;;;4.40;99.90;;;;;;5064270;28;20511;-83
2024/02/13 02:01:30;;;;;;;19.07;11.80;;;4.40;99.90;;;;;;5063886;28;20494;-85
2024/02/13 02:04:00;;;;;;;18.60;11.47;;;4.40;99.90;;;;;;5064665;28;20991;-84
2024/02/13 02:06:27;;;;;;;13.23;9.83;;;4.40;99.90;;;;;;5055017;28;20511;-81
2024/02/13 02:08:55;;;;;;;19.37;10.27;;;4.40;99.90;;;;;;5063562;28;20482;-83
2024/02/13 02:11:23;;;;;;;20.83;12.13;;;4.40;99.90;;;;;;5057450;28;21000;-83
2024/02/13 02:13:52;;;;;;;18.33;10.43;;;4.40;99.90;;;;;;5060451;28;20469;-81
2024/02/13 02:16:19;;;;;;;23.93;10.90;;;4.40;99.90;;;;;;5055494;28;20885;-83
2024/02/13 02:18:46;;;;;;;16.17;9.80;;;4.40;99.90;;;;;;5055181;28;20489;-83
2024/02/13 02:21:14;;;;;;;19.20;11.33;;;4.40;99.90;;;;;;5063519;28;20519;-82
2024/02/13 02:23:41;;;;;;;20.20;10.27;;;4.40;99.90;;;;;;5064741;28;20498;-83
2024/02/13 02:26:10;;;;;;;14.63;10.43;;;4.40;99.90;;;;;;5064374;28;20487;-84
2024/02/13 02:28:37;;;;;;;17.53;10.30;;;4.40;99.90;;;;;;5061096;28;20474;-82
2024/02/13 02:31:05;;;;;;;15.73;9.90;;;4.50;99.90;;;;;;5053435;28;21041;-83
2024/02/13 02:33:32;;;;;;;15.13;9.53;;;4.40;99.90;;;;;;5054484;28;20556;-83
2024/02/13 02:35:58;;;;;;;14.80;10.20;;;4.40;99.90;;;;;;5050503;28;20493;-84
2024/02/13 02:38:25;;;;;;;22.33;11.03;;;4.40;99.90;;;;;;5053441;28;20525;-83
2024/02/13 02:40:52;;;;;;;17.60;10.53;;;4.40;99.90;;;;;;5065292;28;20504;-84
2024/02/13 02:43:20;;;;;;;23.07;11.80;;;4.40;99.90;;;;;;5066294;28;20452;-84
2024/02/13 02:45:47;;;;;;;17.33;10.70;;;4.40;99.90;;;;;;5065096;28;20488;-84
2024/02/13 02:48:18;;;;;;;26.57;13.87;;;4.40;99.90;;;;;;5065738;28;20940;-85
2024/02/13 02:50:45;;;;;;;20.73;11.70;;;4.40;99.90;;;;;;5053995;28;20530;-86
2024/02/13 02:53:16;;;;;;;16.77;11.97;;;4.50;99.90;;;;;;5066260;28;20451;-84
2024/02/13 02:55:43;;;;;;;19.90;11.13;;;4.50;99.90;;;;;;5064661;28;20444;-84
2024/02/13 02:58:10;;;;;;;18.60;12.00;;;4.60;99.90;;;;;;5057642;28;20473;-82
2024/02/13 03:00:38;;;;;;;18.40;11.63;;;4.60;99.90;;;;;;5073100;28;20488;-82
2024/02/13 03:03:05;;;;;;;15.70;10.90;;;4.60;99.90;;;;;;5065983;28;20548;-84
2024/02/13 03:05:33;;;;;;;18.53;11.70;;;4.60;99.90;;;;;;5051120;28;20523;-83
2024/02/13 03:08:00;;;;;;;19.03;12.30;;;4.50;99.90;;;;;;5064852;28;20463;-83
2024/02/13 03:10:28;;;;;;;17.60;12.00;;;4.60;99.90;;;;;;5066018;28;20939;-83
2024/02/13 03:12:55;;;;;;;17.47;12.00;;;4.50;99.90;;;;;;5066485;28;20512;-82
2024/02/13 03:15:22;;;;;;;17.33;10.20;;;4.50;99.90;;;;;;5065137;28;20475;-82
2024/02/13 03:17:50;;;;;;;20.97;11.70;;;4.50;99.90;;;;;;5048216;28;20455;-84
2024/02/13 03:20:17;;;;;;;15.50;11.50;;;4.50;99.90;;;;;;5062643;28;20536;-81
2024/02/13 03:22:44;;;;;;;22.70;12.83;;;4.40;99.90;;;;;;5056429;28;20530;-83
2024/02/13 03:25:11;;;;;;;18.50;12.20;;;4.40;99.90;;;;;;5057387;28;20904;-84
2024/02/13 03:27:38;;;;;;;24.33;12.50;;;4.40;99.90;;;;;;5066761;28;20474;-82
2024/02/13 03:30:06;;;;;;;16.37;13.03;;;4.40;99.90;;;;;;5057637;28;20464;-82
2024/02/13 03:32:32;;;;;;;18.53;11.13;;;4.50;99.90;;;;;;5060598;28;20523;-82
2024/02/13 03:35:01;;;;;;;17.10;11.80;;;4.40;99.90;;;;;;5067381;28;20548;-80
2024/02/13 03:37:27;;;;;;;27.20;12.53;;;4.40;99.90;;;;;;5057951;28;20543;-84
2024/02/13 03:39:54;;;;;;;16.50;10.80;;;4.40;99.90;;;;;;5058873;28;21047;-82
2024/02/13 03:42:21;;;;;;;18.33;11.90;;;4.30;99.90;;;;;;5059457;28;20505;-82
2024/02/13 03:44:48;;;;;;;17.03;10.40;;;4.30;99.90;;;;;;5057299;28;20486;-85
2024/02/13 03:47:15;;;;;;;17.53;11.30;;;4.30;99.90;;;;;;5065261;28;20912;-80
2024/02/13 03:49:42;;;;;;;14.80;10.10;;;4.30;99.90;;;;;;5063828;28;20471;-81
2024/02/13 03:52:10;;;;;;;18.03;13.03;;;4.20;99.90;;;;;;5065064;28;20471;-82
2024/02/13 03:54:37;;;;;;;17.03;10.87;;;4.20;99.90;;;;;;5066004;28;20809;-81
2024/02/13 03:57:04;;;;;;;13.90;10.30;;;4.20;99.90;;;;;;5057037;28;20538;-83
2024/02/13 03:59:31;;;;;;;18.73;12.70;;;4.20;99.90;;;;;;5065113;28;20481;-83
2024/02/13 04:01:59;;;;;;;13.10;10.43;;;4.20;99.90;;;;;;5063757;28;20543;-79
2024/02/13 04:04:26;;;;;;;20.87;10.80;;;4.20;99.90;;;;;;5071546;28;20487;-82
2024/02/13 04:06:53;;;;;;;15.50;11.23;;;4.20;99.90;;;;;;5066702;28;20467;-83
2024/02/13 04:09:21;;;;;;;17.47;12.03;;;4.10;99.90;;;;;;5069634;28;20487;-85
2024/02/13 04:11:49;;;;;;;15.23;11.40;;;4.20;99.90;;;;;;5062040;28;20471;-84
2024/02/13 04:14:18;;;;;;;20.20;12.00;;;4.20;99.90;;;;;;5067344;28;20473;-81
2024/02/13 04:16:44;;;;;;;20.60;13.70;;;4.20;99.90;;;;;;5072489;28;20493;-83
2024/02/13 04:19:12;;;;;;;24.13;13.77;;;4.30;99.90;;;;;;5053787;28;20438;-84
2024/02/13 04:21:39;;;;;;;20.50;14.60;;;4.40;99.90;;;;;;5059424;28;20500;-83
2024/02/13 04:24:06;;;;;;;18.43;13.17;;;4.40;99.90;;;;;;5067648;28;20550;-85
2024/02/13 04:26:39;;;;;;;21.37;14.30;;;4.50;99.90;;;;;;5066893;28;20554;-85
2024/02/13 04:29:05;;;;;;;21.50;14.63;;;4.40;99.90;;;;;;5059447;28;20455;-84
2024/02/13 04:31:32;;;;;;;21.93;15.20;;;4.40;99.90;;;;;;5052296;28;20546;-85
2024/02/13 04:33:59;;;;;;;21.10;14.07;;;4.40;99.90;;;;;;5066343;28;20640;-83
2024/02/13 04:36:26;;;;;;;19.53;13.80;;;4.40;99.90;;;;;;5066681;28;20447;-83
2024/02/13 04:38:53;;;;;;;24.37;15.10;;;4.40;99.90;;;;;;5059784;28;20450;-84
2024/02/13 04:41:19;;;;;;;20.07;13.00;;;4.40;99.90;;;;;;5066851;28;20514;-83
2024/02/13 04:43:49;;;;;;;20.73;14.10;;;4.40;99.90;;;;;;5062078;28;20472;-83
2024/02/13 04:46:16;;;;;;;26.37;14.73;;;4.30;99.90;;;;;;5062466;28;20455;-84
2024/02/13 04:48:43;;;;;;;20.83;15.03;;;4.40;99.90;;;;;;5058245;28;20506;-83
2024/02/13 04:51:10;;;;;;;20.23;14.80;;;4.40;99.90;;;;;;5062553;28;20521;-84
2024/02/13 04:53:37;;;;;;;22.37;15.60;;;4.40;99.90;;;;;;5065736;28;20470;-84
2024/02/13 04:56:05;;;;;;;18.87;14.77;;;4.40;99.90;;;;;;5064656;28;20462;-83
2024/02/13 04:58:33;;;;;;;23.83;16.07;;;4.40;99.90;;;;;;5065458;28;20463;-84
2024/02/13 05:01:07;;;;;;;24.83;16.67;;;4.30;99.90;;;;;;5065234;28;20478;-82
2024/02/13 05:07:19;;;;;;;27.17;16.27;;;4.30;99.90;;;;;;5059492;28;20550;-82
2024/02/13 05:09:15;;;;;;;27.73;16.27;;;4.30;99.90;;;;;;5053301;28;20848;-83
2024/02/13 05:11:41;;;;;;;26.30;15.50;;;4.30;99.90;;;;;;5059248;28;20474;-82
2024/02/13 05:14:09;;;;;;;26.20;15.37;;;4.30;99.90;;;;;;5064418;28;20519;-81
2024/02/13 05:16:38;;;;;;;23.20;14.53;;;4.30;99.90;;;;;;5063964;28;20454;-83
2024/02/13 05:19:06;;;;;;;23.43;15.90;;;4.30;99.90;;;;;;5064427;28;20450;-82
2024/02/13 05:21:35;;;;;;;27.13;15.50;;;4.30;99.90;;;;;;5062668;28;20495;-82
2024/02/13 05:24:03;;;;;;;24.33;14.90;;;4.30;99.90;;;;;;5055925;28;20542;-82
2024/02/13 05:26:31;;;;;;;23.00;15.87;;;4.30;99.90;;;;;;5064550;28;20951;-81
2024/02/13 05:28:58;;;;;;;21.30;16.53;;;4.30;99.90;;;;;;5055024;28;20426;-84
2024/02/13 05:31:26;;;;;;;26.30;15.93;;;4.30;99.90;;;;;;5051300;28;20541;-83
2024/02/13 05:33:55;;;;;;;33.40;18.70;;;4.20;99.90;;;;;;5067259;28;20460;-82
2024/02/13 05:36:22;;;;;;;18.80;14.30;;;4.20;99.90;;;;;;5067096;28;20454;-82
2024/02/13 05:38:53;;;;;;;21.27;14.67;;;4.20;99.90;;;;;;5067207;28;20459;-82
2024/02/13 05:41:20;;;;;;;21.63;14.40;;;4.20;99.90;;;;;;5063026;28;20493;-83
2024/02/13 05:43:47;;;;;;;23.87;14.53;;;4.20;99.90;;;;;;5057041;28;20466;-83
2024/02/13 05:46:17;;;;;;;19.93;12.80;;;4.20;99.90;;;;;;5067036;28;20493;-83
2024/02/13 05:48:45;;;;;;;24.00;15.47;;;4.20;99.90;;;;;;5067460;28;20469;-83
2024/02/13 05:51:14;;;;;;;20.67;12.37;;;4.20;99.90;;;;;;5067460;28;20495;-84
2024/02/13 05:53:42;;;;;;;20.10;13.40;;;4.20;99.90;;;;;;5067453;28;20450;-83
2024/02/13 05:56:11;;;;;;;26.57;15.30;;;4.20;99.90;;;;;;5066840;28;20451;-81
2024/02/13 05:58:38;;;;;;;19.10;12.57;;;4.30;99.90;;;;;;5061033;28;20486;-80
2024/02/13 06:01:05;;;;;;;20.33;12.57;;;4.20;99.90;;;;;;5067475;28;20546;-81
2024/02/13 06:03:32;;;;;;;17.53;11.60;;;4.20;99.90;;;;;;5061891;28;20448;-81
2024/02/13 06:05:59;;;;;;;23.37;13.63;;;4.20;99.90;;;;;;5064563;28;20456;-82
2024/02/13 06:08:27;;;;;;;17.83;12.07;;;4.10;99.90;;;;;;5057026;28;20740;-81
2024/02/13 06:10:55;;;;;;;19.43;12.30;;;4.10;99.90;;;;;;5060539;28;20537;-82
2024/02/13 06:13:22;;;;;;;18.20;11.37;;;4.10;99.90;;;;;;5069575;28;20454;-82
2024/02/13 06:15:49;;;;;;;21.93;12.60;;;4.20;99.90;;;;;;5069024;28;20467;-82
2024/02/13 06:18:16;;;;;;;26.17;11.60;;;4.10;99.90;;;;;;5062313;28;20488;-84
2024/02/13 06:20:43;;;;;;;18.60;11.03;;;4.00;99.90;;;;;;5063028;28;20925;-83
2024/02/13 06:23:10;;;;;;;21.80;10.70;;;4.00;99.90;;;;;;5061206;28;20489;-83
2024/02/13 06:25:38;;;;;;;18.17;11.90;;;4.00;99.90;;;;;;5068305;28;21076;-83
2024/02/13 06:28:06;;;;;;;20.47;11.10;;;3.90;99.90;;;;;;5069191;28;20504;-84
2024/02/13 06:30:33;;;;;;;18.50;10.30;;;4.00;99.90;;;;;;5067219;28;20530;-84
2024/02/13 06:33:01;;;;;;;18.00;10.53;;;4.00;99.90;;;;;;5065247;28;20478;-83
2024/02/13 06:35:33;;;;;;;26.60;11.10;;;4.10;99.90;;;;;;5063358;28;20441;-84
2024/02/13 06:38:00;;;;;;;15.20;9.80;;;4.10;99.90;;;;;;5066818;28;20444;-84
2024/02/13 06:40:27;;;;;;;17.50;10.47;;;4.20;99.90;;;;;;5065809;28;20539;-85
2024/02/13 06:42:56;;;;;;;15.20;9.90;;;4.20;99.90;;;;;;5065836;28;20483;-83
2024/02/13 06:45:27;;;;;;;18.57;10.27;;;4.20;99.90;;;;;;5066402;28;20481;-81
2024/02/13 06:47:54;;;;;;;13.93;8.03;;;4.10;99.90;;;;;;5054807;28;20527;-82
2024/02/13 06:50:20;;;;;;;12.60;9.00;;;4.10;99.90;;;;;;5057444;28;20553;-84
2024/02/13 06:52:51;;;;;;;15.63;9.20;;;4.20;99.90;;;;;;5057693;28;20435;-84
2024/02/13 06:55:18;;;;;;;13.57;7.87;;;4.20;99.90;;;;;;5057814;28;20443;-81
2024/02/13 06:57:45;;;;;;;14.90;8.80;;;4.20;99.90;;;;;;5059258;28;20482;-83
2024/02/13 07:00:14;;;;;;;13.83;8.47;;;4.10;99.90;;;;;;5058700;28;20482;-80
2024/02/13 07:02:41;;;;;;;13.57;8.00;;;4.20;99.90;;;;;;5063284;28;20915;-83
2024/02/13 07:05:09;;;;;;;12.80;7.20;;;4.30;99.90;;;;;;5059600;28;20531;-80
2024/02/13 07:07:36;;;;;;;12.30;7.60;;;4.30;99.90;;;;;;5056054;28;20473;-82
2024/02/13 07:10:03;;;;;;;11.57;8.63;;;4.30;99.90;;;;;;5064507;28;20474;-81
2024/02/13 07:12:30;;;;;;;14.10;7.10;;;4.30;99.90;;;;;;5059287;28;21004;-80
2024/02/13 07:14:57;;;;;;;14.80;7.37;;;4.30;99.90;;;;;;5059476;28;20991;-82
2024/02/13 07:17:25;;;;;;;11.83;7.37;;;4.40;99.90;;;;;;5058860;28;20479;-81
2024/02/13 07:19:53;;;;;;;9.43;6.77;;;4.40;99.90;;;;;;5060405;28;20474;-82
2024/02/13 07:22:20;;;;;;;13.57;7.90;;;4.50;99.90;;;;;;5058674;28;20490;-80
2024/02/13 07:24:48;;;;;;;13.73;8.13;;;4.50;99.90;;;;;;5055026;28;20456;-81
2024/02/13 07:27:16;;;;;;;16.17;8.50;;;4.60;99.90;;;;;;5055398;28;20455;-80
2024/02/13 07:29:44;;;;;;;14.57;7.37;;;4.60;99.90;;;;;;5053925;28;20480;-80
2024/02/13 07:32:11;;;;;;;11.23;6.30;;;4.70;99.90;;;;;;5062479;28;20460;-81
2024/02/13 07:34:42;;;;;;;15.73;6.90;;;4.80;99.90;;;;;;5058952;28;20866;-81
2024/02/13 07:37:10;;;;;;;9.47;6.00;;;4.90;99.90;;;;;;5059534;28;20996;-84
2024/02/13 07:39:37;;;;;;;11.53;6.40;;;5.00;99.90;;;;;;5061768;28;20469;-82
2024/02/13 07:42:04;;;;;;;8.33;5.30;;;5.10;99.90;;;;;;5060771;28;20492;-82
2024/02/13 07:44:30;;;;;;;19.53;6.60;;;5.20;99.90;;;;;;5064099;28;20535;-83
2024/02/13 07:46:57;;;;;;;14.80;5.30;;;5.20;99.90;;;;;;5064218;28;20456;-81
2024/02/13 07:49:24;;;;;;;13.70;4.80;;;5.30;99.90;;;;;;5059967;28;20794;-83
2024/02/13 07:51:53;;;;;;;8.90;4.63;;;5.30;99.90;;;;;;5060459;28;20906;-81
2024/02/13 07:54:21;;;;;;;7.43;5.93;;;5.40;99.90;;;;;;5057595;28;20515;-83
2024/02/13 07:56:48;;;;;;;12.20;5.10;;;5.40;99.90;;;;;;5063966;28;20472;-83
2024/02/13 07:59:15;;;;;;;14.73;6.43;;;5.50;99.90;;;;;;5062576;28;20516;-79
2024/02/13 08:01:43;;;;;;;9.93;4.60;;;5.40;99.90;;;;;;5068024;28;20566;-83
2024/02/13 08:04:10;;;;;;;7.57;4.90;;;5.50;99.90;;;;;;5068790;28;20531;-82
2024/02/13 08:06:38;;;;;;;8.43;4.20;;;5.50;99.90;;;;;;5064713;28;20491;-81
2024/02/13 08:09:07;;;;;;;6.37;4.53;;;5.50;99.90;;;;;;5061154;28;20862;-82
2024/02/13 08:11:34;;;;;;;8.90;4.13;;;5.60;99.90;;;;;;5061470;28;20503;-81
2024/02/13 08:14:00;;;;;;;10.10;4.90;;;5.70;99.90;;;;;;5066470;28;20454;-83
2024/02/13 08:16:29;;;;;;;7.00;3.43;;;5.80;99.90;;;;;;5054172;28;20548;-82
2024/02/13 08:18:56;;;;;;;7.60;3.10;;;5.80;99.90;;;;;;5064471;28;20464;-80
2024/02/13 08:21:23;;;;;;;11.47;6.10;;;5.90;99.90;;;;;;5037702;28;20494;-82
2024/02/13 08:23:50;;;;;;;9.90;4.00;;;5.80;99.90;;;;;;5066617;28;20522;-82
2024/02/13 08:26:18;;;;;;;10.53;3.80;;;5.80;99.90;;;;;;5066859;28;20458;-83
2024/02/13 08:28:47;;;;;;;9.70;3.13;;;5.60;99.90;;;;;;5058293;28;20453;-82
2024/02/13 08:31:14;;;;;;;14.63;3.20;;;5.70;99.90;;;;;;5059350;28;20467;-81
2024/02/13 08:33:41;;;;;;;5.03;3.23;;;5.60;99.90;;;;;;5059827;28;20832;-81
2024/02/13 08:36:09;;;;;;;6.17;2.47;;;5.70;99.90;;;;;;5057148;28;20539;-83
2024/02/13 08:38:39;;;;;;;11.67;2.67;;;5.70;99.90;;;;;;5060528;28;20471;-84
2024/02/13 08:41:05;;;;;;;6.13;2.50;;;5.80;99.90;;;;;;5065974;28;20518;-83
2024/02/13 08:43:33;;;;;;;5.30;2.83;;;5.80;99.90;;;;;;5059798;28;20858;-82
2024/02/13 08:46:01;;;;;;;5.20;2.70;;;5.90;99.90;;;;;;5064084;28;20507;-83
2024/02/13 08:48:27;;;;;;;8.37;3.00;;;5.90;99.90;;;;;;5057374;28;20440;-82
2024/02/13 08:50:55;;;;;;;15.87;2.77;;;6.10;99.90;;;;;;5064246;28;20569;-82
2024/02/13 08:53:23;;;;;;;7.37;3.77;;;6.20;99.90;;;;;;5062893;28;21003;-83
2024/02/13 08:56:16;;;;;;;5.07;2.60;;;6.40;99.90;;;;;;5065042;28;20539;-83
2024/02/13 08:58:44;;;;;;;9.60;3.20;;;6.40;99.90;;;;;;5065886;28;20441;-81
2024/02/13 09:01:12;;;;;;;9.53;3.00;;;6.40;99.90;;;;;;5057510;28;20535;-80
2024/02/13 09:03:38;;;;;;;8.43;3.00;;;6.50;99.90;;;;;;5066982;28;20496;-82
2024/02/13 09:06:07;;;;;;;8.20;2.97;;;6.60;99.90;;;;;;5065850;28;20459;-82
2024/02/13 09:08:36;;;;;;;4.10;3.10;;;6.70;99.90;;;;;;5053708;28;20561;-82
2024/02/13 09:11:03;;;;;;;4.77;2.60;;;6.80;99.90;;;;;;5055604;28;20543;-81
2024/02/13 09:13:30;;;;;;;8.43;2.57;;;6.90;99.90;;;;;;5059041;28;20438;-82
2024/02/13 09:15:58;;;;;;;4.30;2.50;;;7.10;99.90;;;;;;5059960;28;20547;-83
2024/02/13 09:18:25;;;;;;;6.77;2.67;;;7.10;99.90;;;;;;5061758;28;20463;-84
2024/02/13 09:20:51;;;;;;;5.63;2.13;;;7.30;99.90;;;;;;5057941;28;20631;-81
2024/02/13 09:23:19;;;;;;;9.10;2.30;;;7.30;99.90;;;;;;5057182;28;20513;-81
2024/02/13 09:25:49;;;;;;;6.37;2.27;;;7.30;99.90;;;;;;5049127;28;20484;-81
2024/02/13 09:28:16;;;;;;;5.30;2.43;;;7.40;99.90;;;;;;5058443;28;20987;-82
2024/02/13 09:30:43;;;;;;;3.03;2.00;;;7.50;99.90;;;;;;5066345;28;20468;-82
2024/02/13 09:33:12;;;;;;;6.30;1.93;;;7.40;99.90;;;;;;5062298;28;20444;-82
2024/02/13 09:35:40;;;;;;;6.17;2.33;;;7.70;99.90;;;;;;5064771;28;20465;-81
2024/02/13 09:38:07;;;;;;;6.73;2.23;;;7.80;99.90;;;;;;5064270;28;21077;-80
2024/02/13 09:40:34;;;;;;;4.30;1.97;;;8.00;99.90;;;;;;5067050;28;20832;-79
2024/02/13 09:43:01;;;;;;;5.37;2.10;;;8.00;99.90;;;;;;5065715;28;20520;-83
2024/02/13 09:45:29;;;;;;;7.20;2.50;;;7.90;99.90;;;;;;5065061;28;20449;-83
2024/02/13 09:48:06;;;;;;;5.30;1.70;;;8.00;99.90;;;;;;5062970;28;20461;-83
2024/02/13 09:50:38;;;;;;;3.40;1.77;;;8.00;99.90;;;;;;5066752;28;20474;-83
2024/02/13 09:53:17;;;;;;;6.73;2.43;;;8.40;99.90;;;;;;5067718;28;20471;-83
2024/02/13 09:55:46;;;;;;;4.90;1.97;;;8.50;99.90;;;;;;5062901;28;20437;-84
2024/02/13 09:58:13;;;;;;;3.60;1.70;;;8.40;99.90;;;;;;5067830;28;20470;-83
2024/02/13 10:00:41;;;;;;;7.10;2.60;;;8.50;99.90;;;;;;5067774;28;20529;-82
2024/02/13 10:03:11;;;;;;;7.03;2.30;;;8.60;99.90;;;;;;5066720;28;20567;-83
2024/02/13 10:05:40;;;;;;;8.63;1.67;;;8.70;99.90;;;;;;5062711;28;20462;-82
2024/02/13 10:08:07;;;;;;;5.70;2.10;;;8.80;99.90;;;;;;5062033;28;20458;-83
2024/02/13 10:10:34;;;;;;;10.00;2.30;;;8.80;99.90;;;;;;5074579;28;20473;-84
2024/02/13 10:13:03;;;;;;;5.47;2.37;;;8.70;99.90;;;;;;5066462;28;20468;-83
2024/02/13 10:15:40;;;;;;;6.17;1.60;;;9.00;99.90;;;;;;5061350;28;20520;-83
2024/02/13 10:18:11;;;;;;;2.97;1.80;;;9.40;99.90;;;;;;5074698;28;20481;-83
2024/02/13 10:20:40;;;;;;;8.10;2.50;;;9.20;99.90;;;;;;5081573;28;20454;-83
2024/02/13 10:23:09;;;;;;;4.50;2.10;;;9.60;99.90;;;;;;5081651;28;20520;-83
2024/02/13 10:25:37;;;;;;;3.80;2.10;;;10.30;99.90;;;;;;5080115;28;20443;-81
2024/02/13 10:28:06;;;;;;;4.43;1.93;;;11.30;99.90;;;;;;5066101;28;20547;-82
2024/02/13 10:30:33;;;;;;;3.60;1.40;;;11.70;99.90;;;;;;5067710;28;20482;-80
2024/02/13 10:33:01;;;;;;;10.27;6.40;;;11.70;99.90;;;;;;5070217;28;20894;-81
2024/02/13 10:35:30;;;;;;;3.40;1.90;;;11.90;99.90;;;;;;5068704;28;20443;-82
2024/02/13 10:37:59;;;;;;;4.03;1.30;;;11.70;99.90;;;;;;5068463;28;20452;-83
2024/02/13 10:40:28;;;;;;;4.47;1.90;;;11.90;99.90;;;;;;5067489;28;20519;-83
2024/02/13 10:42:55;;;;;;;6.30;2.37;;;12.30;99.90;;;;;;5066115;28;20523;-82
2024/02/13 10:45:24;;;;;;;6.70;2.03;;;11.70;99.90;;;;;;5069683;28;20455;-82
2024/02/13 10:47:54;;;;;;;3.10;1.60;;;11.30;99.90;;;;;;5069627;28;20806;-82
2024/02/13 10:50:22;;;;;;;5.70;2.13;;;11.80;99.90;;;;;;5062080;28;21002;-83
2024/02/13 10:52:54;;;;;;;10.37;2.17;;;12.30;99.90;;;;;;5066865;28;20452;-82
2024/02/13 10:55:23;;;;;;;2.70;1.70;;;12.40;99.90;;;;;;5070367;28;20450;-81
2024/02/13 10:57:51;;;;;;;4.03;2.10;;;13.40;99.90;;;;;;5071279;28;20456;-84
2024/02/13 11:00:20;;;;;;;6.73;1.90;;;14.30;99.90;;;;;;5070080;28;20993;-82
2024/02/13 11:02:51;;;;;;;4.40;1.93;;;14.00;99.90;;;;;;5066936;28;20469;-82
2024/02/13 11:05:19;;;;;;;6.20;2.20;;;14.60;99.90;;;;;;5071486;28;20446;-81
2024/02/13 11:07:47;;;;;;;4.30;1.83;;;15.30;99.90;;;;;;5071301;28;20485;-83
2024/02/13 11:10:14;;;;;;;4.93;2.50;;;15.80;99.90;;;;;;5071241;28;20484;-82
2024/02/13 11:12:45;;;;;;;4.57;2.30;;;17.10;98.10;;;;;;5064343;28;20532;-84
2024/02/13 11:15:16;;;;;;;4.90;2.00;;;17.90;97.20;;;;;;5064660;28;20479;-82
2024/02/13 11:17:47;;;;;;;3.67;1.70;;;18.40;95.30;;;;;;5071747;28;20589;-83
2024/02/13 11:20:22;;;;;;;7.77;2.60;;;19.00;93.00;;;;;;5061661;28;20522;-83
2024/02/13 11:22:52;;;;;;;4.27;1.67;;;19.00;92.60;;;;;;5065607;28;20452;-83
2024/02/13 11:25:25;;;;;;;6.57;1.70;;;17.90;91.00;;;;;;5067895;28;20470;-83
2024/02/13 11:28:05;;;;;;;3.40;1.20;;;17.80;91.00;;;;;;5058051;28;20465;-83
2024/02/13 11:30:33;;;;;;;5.27;1.87;;;18.40;90.00;;;;;;5060170;28;20472;-83
2024/02/13 11:33:05;;;;;;;2.30;1.40;;;19.80;88.50;;;;;;5070609;28;20456;-85
2024/02/13 11:35:33;;;;;;;5.87;1.87;;;20.40;86.00;;;;;;5068415;28;20533;-82
2024/02/13 11:38:11;;;;;;;3.33;1.70;;;19.40;82.40;;;;;;5064593;28;20529;-82
2024/02/13 11:40:41;;;;;;;6.10;1.47;;;18.10;84.50;;;;;;5064788;28;20502;-82
2024/02/13 11:43:21;;;;;;;13.30;2.23;;;16.60;84.40;;;;;;5065050;28;20451;-81
2024/02/13 11:45:47;;;;;;;3.93;1.80;;;16.10;86.70;;;;;;5061880;28;20502;-81
2024/02/13 11:48:16;;;;;;;5.63;2.00;;;15.10;88.60;;;;;;5064665;28;20523;-82
2024/02/13 11:50:43;;;;;;;3.20;1.20;;;15.90;90.30;;;;;;5065529;28;20472;-83
2024/02/13 11:53:11;;;;;;;5.80;1.30;;;15.30;90.20;;;;;;5053292;28;20464;-81
2024/02/13 11:55:39;;;;;;;3.90;1.00;;;14.50;90.00;;;;;;5052521;28;20510;-81
2024/02/13 11:58:14;;;;;;;5.00;1.20;;;14.00;91.70;;;;;;5056862;28;20981;-84
2024/02/13 12:00:44;;;;;;;5.53;1.30;;;15.30;92.20;;;;;;5059074;28;20475;-82
2024/02/13 12:03:12;;;;;;;4.73;2.13;;;16.60;90.40;;;;;;5053079;28;20440;-82
2024/02/13 12:05:39;;;;;;;5.33;1.70;;;17.30;90.80;;;;;;5058454;28;20463;-82
2024/02/13 12:08:09;;;;;;;5.13;1.77;;;18.90;88.80;;;;;;5062059;28;21187;-84
2024/02/13 12:10:36;;;;;;;4.17;1.40;;;18.90;83.20;;;;;;5058805;28;20778;-84
2024/02/13 12:13:03;;;;;;;3.67;1.40;;;19.20;84.80;;;;;;5059355;28;20985;-82
2024/02/13 12:15:30;;;;;;;3.20;1.23;;;19.40;80.20;;;;;;5055025;28;20531;-83
2024/02/13 12:18:03;;;;;;;2.63;1.53;;;18.60;79.90;;;;;;5056499;28;20545;-83
2024/02/13 12:20:32;;;;;;;5.90;1.53;;;17.30;79.90;;;;;;5057732;28;20470;-83
2024/02/13 12:22:59;;;;;;;3.43;1.17;;;15.80;82.20;;;;;;5056332;28;20457;-83
2024/02/13 12:25:26;;;;;;;7.37;1.30;;;15.90;83.90;;;;;;5055860;28;20527;-83
2024/02/13 12:28:00;;;;;;;3.13;1.20;;;16.00;84.80;;;;;;5059581;28;20538;-83
2024/02/13 12:30:27;;;;;;;2.77;0.90;;;15.70;84.00;;;;;;5054853;28;20472;-81
2024/02/13 12:32:54;;;;;;;3.83;1.27;;;16.30;84.70;;;;;;5056776;28;20455;-81
2024/02/13 12:35:31;;;;;;;4.80;1.60;;;16.00;83.50;;;;;;5052579;28;20513;-81
2024/02/13 12:38:13;;;;;;;3.87;1.20;;;15.60;82.80;;;;;;5053051;28;20482;-80
2024/02/13 12:40:40;;;;;;;6.60;1.20;;;14.60;87.00;;;;;;5051775;28;20480;-81
2024/02/13 12:43:08;;;;;;;5.53;1.30;;;13.90;87.80;;;;;;5053183;28;20451;-83
2024/02/13 12:45:41;;;;;;;3.13;1.03;;;13.40;87.60;;;;;;5051459;28;20992;-83
2024/02/13 12:48:09;;;;;;;3.90;1.80;;;13.00;88.40;;;;;;5054411;28;20548;-83
2024/02/13 12:50:38;;;;;;;5.10;1.10;;;12.70;90.00;;;;;;5054168;28;20466;-84
2024/02/13 12:53:09;;;;;;;8.40;1.90;;;12.30;90.30;;;;;;5053947;28;20514;-80